Terminal Aerodrome Forecast
Issued by NWS

Home | Current Version | Previous Version | Text Only | Print | Product List | Glossary On
Versions: 1 2 3 4 5 6 7 8 9 10 11 12 13 14 15 16
000
FTUS46 KMTR 271100
TAFSJC
TAF
KSJC 271120Z 2712/2812 15007KT P6SM FEW250
     FM272200 32005KT P6SM FEW250
     FM280400 00000KT P6SM BKN250=

USA.gov is the U.S. government's official web portal to all federal, state and local government web resources and services.